sensor_id;sensor_type;location;lat;lon;timestamp;pressure;altitude;pressure_sealevel;temperature;humidity
71974;BME280;59840;52.122;5.404;2023-05-24T00:01:53;102619.66;;;7.06;88.16
71974;BME280;59840;52.122;5.404;2023-05-24T00:04:22;102620.56;;;6.99;88.00
71974;BME280;59840;52.122;5.404;2023-05-24T00:06:51;102618.19;;;6.89;87.97
71974;BME280;59840;52.122;5.404;2023-05-24T00:09:20;102624.78;;;6.85;87.97
71974;BME280;59840;52.122;5.404;2023-05-24T00:11:47;102616.91;;;6.85;88.02
71974;BME280;59840;52.122;5.404;2023-05-24T00:14:14;102618.41;;;6.80;88.41
71974;BME280;59840;52.122;5.404;2023-05-24T00:16:40;102615.50;;;6.75;88.26
71974;BME280;59840;52.122;5.404;2023-05-24T00:19:07;102615.19;;;6.69;88.25
71974;BME280;59840;52.122;5.404;2023-05-24T00:21:37;102615.91;;;6.63;88.92
71974;BME280;59840;52.122;5.404;2023-05-24T00:24:03;102625.69;;;6.69;88.60
71974;BME280;59840;52.122;5.404;2023-05-24T00:26:30;102619.16;;;6.65;88.55
71974;BME280;59840;52.122;5.404;2023-05-24T00:28:57;102625.75;;;6.61;88.83
71974;BME280;59840;52.122;5.404;2023-05-24T00:31:23;102616.25;;;6.60;88.72
71974;BME280;59840;52.122;5.404;2023-05-24T00:33:50;102611.72;;;6.54;88.70
71974;BME280;59840;52.122;5.404;2023-05-24T00:36:16;102605.66;;;6.54;88.73
71974;BME280;59840;52.122;5.404;2023-05-24T00:38:43;102603.38;;;6.51;88.90
71974;BME280;59840;52.122;5.404;2023-05-24T00:41:10;102603.22;;;6.52;89.21
71974;BME280;59840;52.122;5.404;2023-05-24T00:43:36;102600.94;;;6.49;88.96
71974;BME280;59840;52.122;5.404;2023-05-24T00:48:42;102590.13;;;6.44;89.38
71974;BME280;59840;52.122;5.404;2023-05-24T00:51:11;102594.56;;;6.44;88.89
71974;BME280;59840;52.122;5.404;2023-05-24T00:53:39;102592.63;;;6.37;89.29
71974;BME280;59840;52.122;5.404;2023-05-24T00:56:07;102591.81;;;6.37;89.15
71974;BME280;59840;52.122;5.404;2023-05-24T00:58:34;102595.13;;;6.31;89.17
71974;BME280;59840;52.122;5.404;2023-05-24T01:01:01;102595.47;;;6.28;89.53
71974;BME280;59840;52.122;5.404;2023-05-24T01:03:28;102585.69;;;6.22;89.33
71974;BME280;59840;52.122;5.404;2023-05-24T01:05:57;102591.13;;;6.20;89.31
71974;BME280;59840;52.122;5.404;2023-05-24T01:11:15;102594.56;;;6.21;89.42
71974;BME280;59840;52.122;5.404;2023-05-24T01:13:51;102591.56;;;6.24;90.02
71974;BME280;59840;52.122;5.404;2023-05-24T01:16:23;102597.16;;;6.21;90.42
71974;BME280;59840;52.122;5.404;2023-05-24T01:19:05;102599.16;;;6.19;90.58
71974;BME280;59840;52.122;5.404;2023-05-24T01:24:38;102601.28;;;6.15;90.96
71974;BME280;59840;52.122;5.404;2023-05-24T01:27:13;102591.94;;;6.21;90.40
71974;BME280;59840;52.122;5.404;2023-05-24T01:29:40;102599.72;;;6.29;91.26
71974;BME280;59840;52.122;5.404;2023-05-24T01:32:08;102596.47;;;6.27;90.82
71974;BME280;59840;52.122;5.404;2023-05-24T01:34:35;102594.00;;;6.25;91.06
71974;BME280;59840;52.122;5.404;2023-05-24T01:37:01;102597.44;;;6.26;90.70
71974;BME280;59840;52.122;5.404;2023-05-24T01:39:28;102593.91;;;6.19;91.05
71974;BME280;59840;52.122;5.404;2023-05-24T01:47:38;102591.31;;;6.11;91.39
71974;BME280;59840;52.122;5.404;2023-05-24T01:50:19;102598.38;;;6.10;91.26
71974;BME280;59840;52.122;5.404;2023-05-24T01:52:51;102591.31;;;6.11;91.93
71974;BME280;59840;52.122;5.404;2023-05-24T01:55:19;102591.28;;;6.19;91.98
71974;BME280;59840;52.122;5.404;2023-05-24T01:57:47;102590.78;;;6.23;92.69
71974;BME280;59840;52.122;5.404;2023-05-24T02:00:17;102584.31;;;6.34;94.09
71974;BME280;59840;52.122;5.404;2023-05-24T02:02:44;102595.22;;;6.46;93.64
71974;BME280;59840;52.122;5.404;2023-05-24T02:05:12;102594.88;;;6.49;94.20
71974;BME280;59840;52.122;5.404;2023-05-24T02:07:38;102585.97;;;6.58;94.02
71974;BME280;59840;52.122;5.404;2023-05-24T02:10:07;102590.31;;;6.65;94.18
71974;BME280;59840;52.122;5.404;2023-05-24T02:12:33;102590.97;;;6.67;94.06
71974;BME280;59840;52.122;5.404;2023-05-24T02:15:00;102592.81;;;6.59;93.23
71974;BME280;59840;52.122;5.404;2023-05-24T02:17:26;102589.03;;;6.61;93.45
71974;BME280;59840;52.122;5.404;2023-05-24T02:19:53;102583.34;;;6.58;93.91
71974;BME280;59840;52.122;5.404;2023-05-24T02:22:20;102573.28;;;6.61;94.56
71974;BME280;59840;52.122;5.404;2023-05-24T02:24:47;102574.22;;;6.68;94.90
71974;BME280;59840;52.122;5.404;2023-05-24T02:27:14;102570.72;;;6.76;94.78
71974;BME280;59840;52.122;5.404;2023-05-24T02:29:40;102576.44;;;6.80;94.83
71974;BME280;59840;52.122;5.404;2023-05-24T02:32:07;102575.28;;;6.82;94.78
71974;BME280;59840;52.122;5.404;2023-05-24T02:34:34;102576.28;;;6.81;95.29
71974;BME280;59840;52.122;5.404;2023-05-24T02:37:01;102581.88;;;6.78;95.27
71974;BME280;59840;52.122;5.404;2023-05-24T02:39:27;102584.50;;;6.78;95.38
71974;BME280;59840;52.122;5.404;2023-05-24T02:41:54;102588.09;;;6.77;95.22
71974;BME280;59840;52.122;5.404;2023-05-24T02:44:21;102577.78;;;6.76;94.72
71974;BME280;59840;52.122;5.404;2023-05-24T02:54:48;102587.16;;;6.70;94.82
71974;BME280;59840;52.122;5.404;2023-05-24T03:17:14;102594.78;;;6.34;93.97
71974;BME280;59840;52.122;5.404;2023-05-24T03:24:11;102583.59;;;6.40;94.39
71974;BME280;59840;52.122;5.404;2023-05-24T03:26:43;102580.16;;;6.39;93.88
71974;BME280;59840;52.122;5.404;2023-05-24T03:29:10;102572.00;;;6.34;94.89
71974;BME280;59840;52.122;5.404;2023-05-24T03:31:39;102572.47;;;6.38;94.27
71974;BME280;59840;52.122;5.404;2023-05-24T03:34:09;102561.34;;;6.36;94.56
71974;BME280;59840;52.122;5.404;2023-05-24T03:36:36;102558.09;;;6.34;94.35
71974;BME280;59840;52.122;5.404;2023-05-24T03:39:07;102566.41;;;6.37;94.42
71974;BME280;59840;52.122;5.404;2023-05-24T03:41:36;102569.38;;;6.34;94.37
71974;BME280;59840;52.122;5.404;2023-05-24T03:44:08;102573.28;;;6.38;94.78
71974;BME280;59840;52.122;5.404;2023-05-24T03:46:59;102574.44;;;6.36;94.86
71974;BME280;59840;52.122;5.404;2023-05-24T03:53:59;102567.78;;;6.25;94.94
71974;BME280;59840;52.122;5.404;2023-05-24T03:57:02;102572.88;;;6.27;94.94
71974;BME280;59840;52.122;5.404;2023-05-24T04:51:20;102568.88;;;8.81;96.22
71974;BME280;59840;52.122;5.404;2023-05-24T05:06:36;102580.00;;;9.32;95.32
71974;BME280;59840;52.122;5.404;2023-05-24T05:17:26;102585.91;;;9.75;93.61
71974;BME280;59840;52.122;5.404;2023-05-24T05:19:58;102582.06;;;9.78;93.88
71974;BME280;59840;52.122;5.404;2023-05-24T05:22:36;102577.41;;;9.80;93.26
71974;BME280;59840;52.122;5.404;2023-05-24T05:25:11;102582.91;;;9.85;92.52
71974;BME280;59840;52.122;5.404;2023-05-24T05:28:06;102581.13;;;9.92;92.53
71974;BME280;59840;52.122;5.404;2023-05-24T05:31:00;102581.16;;;9.99;92.73
71974;BME280;59840;52.122;5.404;2023-05-24T05:33:52;102588.47;;;10.10;94.08
71974;BME280;59840;52.122;5.404;2023-05-24T05:36:50;102592.75;;;10.18;92.43
71974;BME280;59840;52.122;5.404;2023-05-24T05:43:35;102597.50;;;10.42;92.13
71974;BME280;59840;52.122;5.404;2023-05-24T06:24:52;102593.13;;;11.08;86.94
71974;BME280;59840;52.122;5.404;2023-05-24T06:44:13;102594.44;;;11.44;83.57
71974;BME280;59840;52.122;5.404;2023-05-24T07:03:18;102609.41;;;11.83;81.47
71974;BME280;59840;52.122;5.404;2023-05-24T07:18:15;102615.28;;;11.92;79.43
71974;BME280;59840;52.122;5.404;2023-05-24T07:20:56;102618.75;;;11.92;78.81
71974;BME280;59840;52.122;5.404;2023-05-24T07:23:23;102620.81;;;11.84;78.92
71974;BME280;59840;52.122;5.404;2023-05-24T07:25:52;102616.34;;;11.84;78.72
71974;BME280;59840;52.122;5.404;2023-05-24T07:28:18;102609.03;;;11.80;77.88
71974;BME280;59840;52.122;5.404;2023-05-24T07:30:47;102618.22;;;11.77;78.96
71974;BME280;59840;52.122;5.404;2023-05-24T07:33:22;102614.94;;;11.75;78.23
71974;BME280;59840;52.122;5.404;2023-05-24T07:35:49;102617.56;;;11.82;78.10
71974;BME280;59840;52.122;5.404;2023-05-24T07:38:20;102621.03;;;11.82;78.29
71974;BME280;59840;52.122;5.404;2023-05-24T07:44:48;102626.13;;;12.28;78.88
71974;BME280;59840;52.122;5.404;2023-05-24T07:55:13;102614.84;;;12.46;76.32
71974;BME280;59840;52.122;5.404;2023-05-24T07:58:34;102618.75;;;12.68;77.18
71974;BME280;59840;52.122;5.404;2023-05-24T08:01:43;102623.09;;;12.88;74.87
71974;BME280;59840;52.122;5.404;2023-05-24T08:32:21;102602.72;;;13.74;70.45
71974;BME280;59840;52.122;5.404;2023-05-24T08:42:29;102604.81;;;13.29;70.49
71974;BME280;59840;52.122;5.404;2023-05-24T08:49:04;102601.22;;;13.79;71.43
71974;BME280;59840;52.122;5.404;2023-05-24T08:59:15;102605.84;;;14.01;68.38
71974;BME280;59840;52.122;5.404;2023-05-24T09:02:10;102598.44;;;13.73;68.53
71974;BME280;59840;52.122;5.404;2023-05-24T09:05:32;102603.25;;;13.95;67.06
71974;BME280;59840;52.122;5.404;2023-05-24T09:08:10;102594.19;;;14.02;66.47
71974;BME280;59840;52.122;5.404;2023-05-24T09:11:15;102607.84;;;13.88;66.14
71974;BME280;59840;52.122;5.404;2023-05-24T09:14:08;102602.09;;;13.91;68.77
71974;BME280;59840;52.122;5.404;2023-05-24T09:17:08;102605.00;;;14.19;65.44
71974;BME280;59840;52.122;5.404;2023-05-24T09:19:48;102614.75;;;14.07;64.89
71974;BME280;59840;52.122;5.404;2023-05-24T09:22:50;102615.16;;;13.74;65.23
71974;BME280;59840;52.122;5.404;2023-05-24T09:25:58;102613.66;;;13.60;66.25
71974;BME280;59840;52.122;5.404;2023-05-24T09:28:41;102616.31;;;13.96;66.94
71974;BME280;59840;52.122;5.404;2023-05-24T09:31:34;102602.38;;;14.31;63.85
71974;BME280;59840;52.122;5.404;2023-05-24T09:34:28;102615.34;;;14.39;64.45
71974;BME280;59840;52.122;5.404;2023-05-24T09:37:09;102605.34;;;14.23;63.23
71974;BME280;59840;52.122;5.404;2023-05-24T09:40:01;102611.44;;;14.12;64.95
71974;BME280;59840;52.122;5.404;2023-05-24T09:43:09;102620.00;;;13.95;65.87
71974;BME280;59840;52.122;5.404;2023-05-24T09:45:45;102613.13;;;13.88;65.31
71974;BME280;59840;52.122;5.404;2023-05-24T09:52:14;102602.34;;;13.71;65.59
71974;BME280;59840;52.122;5.404;2023-05-24T09:54:44;102607.06;;;13.69;64.61
71974;BME280;59840;52.122;5.404;2023-05-24T09:57:16;102604.75;;;13.72;65.43
71974;BME280;59840;52.122;5.404;2023-05-24T09:59:43;102609.25;;;13.72;65.17
71974;BME280;59840;52.122;5.404;2023-05-24T10:02:15;102617.38;;;13.77;66.32
71974;BME280;59840;52.122;5.404;2023-05-24T10:05:09;102613.03;;;13.83;65.12
71974;BME280;59840;52.122;5.404;2023-05-24T10:07:59;102616.81;;;13.87;66.18
71974;BME280;59840;52.122;5.404;2023-05-24T10:10:44;102616.50;;;13.83;65.14
71974;BME280;59840;52.122;5.404;2023-05-24T10:13:41;102624.31;;;13.78;65.30
71974;BME280;59840;52.122;5.404;2023-05-24T10:16:46;102612.88;;;13.78;66.39
71974;BME280;59840;52.122;5.404;2023-05-24T10:19:47;102617.59;;;13.75;66.43
71974;BME280;59840;52.122;5.404;2023-05-24T10:22:30;102613.91;;;13.77;65.09
71974;BME280;59840;52.122;5.404;2023-05-24T10:25:53;102607.97;;;13.93;65.15
71974;BME280;59840;52.122;5.404;2023-05-24T10:28:51;102616.97;;;14.10;64.32
71974;BME280;59840;52.122;5.404;2023-05-24T10:31:53;102604.06;;;14.14;65.46
71974;BME280;59840;52.122;5.404;2023-05-24T10:34:26;102607.06;;;14.17;64.76
71974;BME280;59840;52.122;5.404;2023-05-24T10:37:09;102612.84;;;14.26;63.28
71974;BME280;59840;52.122;5.404;2023-05-24T10:39:45;102612.63;;;14.27;61.51
71974;BME280;59840;52.122;5.404;2023-05-24T10:42:22;102612.09;;;14.37;62.04
71974;BME280;59840;52.122;5.404;2023-05-24T10:55:27;102607.38;;;14.39;61.79
71974;BME280;59840;52.122;5.404;2023-05-24T10:58:13;102611.63;;;14.70;61.90
71974;BME280;59840;52.122;5.404;2023-05-24T11:01:46;102613.94;;;14.66;61.77
71974;BME280;59840;52.122;5.404;2023-05-24T11:04:32;102609.31;;;14.62;61.41
71974;BME280;59840;52.122;5.404;2023-05-24T11:08:01;102619.69;;;14.52;60.71
71974;BME280;59840;52.122;5.404;2023-05-24T11:14:33;102606.56;;;14.80;59.95
71974;BME280;59840;52.122;5.404;2023-05-24T11:16:58;102598.13;;;14.95;59.90
71974;BME280;59840;52.122;5.404;2023-05-24T11:20:07;102609.34;;;14.97;59.70
71974;BME280;59840;52.122;5.404;2023-05-24T11:23:02;102591.78;;;14.84;58.83
71974;BME280;59840;52.122;5.404;2023-05-24T11:25:46;102596.44;;;14.89;58.96
71974;BME280;59840;52.122;5.404;2023-05-24T11:28:20;102602.06;;;14.81;61.46
71974;BME280;59840;52.122;5.404;2023-05-24T11:33:59;102594.81;;;14.88;61.55
71974;BME280;59840;52.122;5.404;2023-05-24T11:36:55;102594.22;;;15.09;61.04
71974;BME280;59840;52.122;5.404;2023-05-24T11:40:02;102599.91;;;15.13;59.27
71974;BME280;59840;52.122;5.404;2023-05-24T11:42:55;102593.88;;;14.94;59.58
71974;BME280;59840;52.122;5.404;2023-05-24T11:45:27;102593.41;;;14.85;60.45
71974;BME280;59840;52.122;5.404;2023-05-24T11:48:21;102594.78;;;14.99;60.45
71974;BME280;59840;52.122;5.404;2023-05-24T11:51:29;102599.66;;;15.02;60.54
71974;BME280;59840;52.122;5.404;2023-05-24T11:54:37;102595.50;;;15.06;62.20
71974;BME280;59840;52.122;5.404;2023-05-24T11:57:57;102594.69;;;15.06;61.45
71974;BME280;59840;52.122;5.404;2023-05-24T12:08:28;102591.34;;;15.22;60.23
71974;BME280;59840;52.122;5.404;2023-05-24T12:11:13;102590.38;;;15.40;60.68
71974;BME280;59840;52.122;5.404;2023-05-24T12:14:04;102584.25;;;15.39;59.71
71974;BME280;59840;52.122;5.404;2023-05-24T12:16:55;102586.00;;;15.46;60.34
71974;BME280;59840;52.122;5.404;2023-05-24T12:19:47;102584.84;;;15.41;60.37
71974;BME280;59840;52.122;5.404;2023-05-24T12:22:47;102586.44;;;15.42;59.89
71974;BME280;59840;52.122;5.404;2023-05-24T12:25:22;102589.56;;;15.39;59.22
71974;BME280;59840;52.122;5.404;2023-05-24T12:28:17;102582.06;;;15.48;60.39
71974;BME280;59840;52.122;5.404;2023-05-24T12:31:30;102577.06;;;15.52;61.30
71974;BME280;59840;52.122;5.404;2023-05-24T12:37:21;102581.00;;;15.61;59.90
71974;BME280;59840;52.122;5.404;2023-05-24T12:39:59;102579.63;;;15.47;58.75
71974;BME280;59840;52.122;5.404;2023-05-24T12:42:33;102575.25;;;15.40;58.94
71974;BME280;59840;52.122;5.404;2023-05-24T12:48:30;102573.13;;;15.66;60.54
71974;BME280;59840;52.122;5.404;2023-05-24T12:54:40;102583.63;;;15.72;60.37
71974;BME280;59840;52.122;5.404;2023-05-24T12:58:16;102587.13;;;15.61;61.49
71974;BME280;59840;52.122;5.404;2023-05-24T13:01:00;102581.09;;;15.66;61.51
71974;BME280;59840;52.122;5.404;2023-05-24T13:11:04;102587.31;;;15.83;60.56
71974;BME280;59840;52.122;5.404;2023-05-24T13:14:17;102585.00;;;15.87;57.98
71974;BME280;59840;52.122;5.404;2023-05-24T13:17:18;102586.28;;;15.84;58.28
71974;BME280;59840;52.122;5.404;2023-05-24T13:20:03;102592.44;;;15.73;60.33
71974;BME280;59840;52.122;5.404;2023-05-24T13:23:19;102587.38;;;15.60;60.06
71974;BME280;59840;52.122;5.404;2023-05-24T13:25:51;102590.72;;;15.67;62.12
71974;BME280;59840;52.122;5.404;2023-05-24T13:32:48;102590.72;;;15.43;59.67
71974;BME280;59840;52.122;5.404;2023-05-24T13:35:42;102596.50;;;15.40;60.97
71974;BME280;59840;52.122;5.404;2023-05-24T13:38:50;102590.50;;;15.33;61.38
71974;BME280;59840;52.122;5.404;2023-05-24T13:41:47;102589.81;;;15.38;61.29
71974;BME280;59840;52.122;5.404;2023-05-24T13:44:45;102586.34;;;15.37;62.68
71974;BME280;59840;52.122;5.404;2023-05-24T13:47:20;102587.38;;;15.36;59.99
71974;BME280;59840;52.122;5.404;2023-05-24T13:50:15;102584.84;;;15.30;61.29
71974;BME280;59840;52.122;5.404;2023-05-24T13:56:02;102583.22;;;15.40;63.16
71974;BME280;59840;52.122;5.404;2023-05-24T13:58:54;102591.66;;;15.49;61.54
71974;BME280;59840;52.122;5.404;2023-05-24T14:01:46;102586.09;;;15.51;60.67
71974;BME280;59840;52.122;5.404;2023-05-24T14:04:33;102582.88;;;15.49;60.79
71974;BME280;59840;52.122;5.404;2023-05-24T14:10:21;102589.56;;;15.39;59.82
71974;BME280;59840;52.122;5.404;2023-05-24T14:13:05;102583.00;;;15.30;60.41
71974;BME280;59840;52.122;5.404;2023-05-24T14:15:47;102584.72;;;15.36;61.91
71974;BME280;59840;52.122;5.404;2023-05-24T14:18:41;102587.16;;;15.26;58.41
71974;BME280;59840;52.122;5.404;2023-05-24T14:25:48;102577.78;;;15.59;59.35
71974;BME280;59840;52.122;5.404;2023-05-24T14:28:45;102575.44;;;15.62;61.55
71974;BME280;59840;52.122;5.404;2023-05-24T14:31:28;102574.06;;;15.60;60.55
71974;BME280;59840;52.122;5.404;2023-05-24T14:34:41;102574.56;;;15.57;59.82
71974;BME280;59840;52.122;5.404;2023-05-24T14:37:47;102565.28;;;15.48;59.57
71974;BME280;59840;52.122;5.404;2023-05-24T14:40:40;102577.19;;;15.45;59.47
71974;BME280;59840;52.122;5.404;2023-05-24T14:43:22;102575.34;;;15.46;59.99
71974;BME280;59840;52.122;5.404;2023-05-24T14:46:12;102578.47;;;15.42;61.01
71974;BME280;59840;52.122;5.404;2023-05-24T14:49:07;102579.63;;;15.35;60.56
71974;BME280;59840;52.122;5.404;2023-05-24T14:52:12;102573.41;;;15.06;61.80
71974;BME280;59840;52.122;5.404;2023-05-24T14:54:41;102575.97;;;15.01;62.52
71974;BME280;59840;52.122;5.404;2023-05-24T14:57:49;102576.66;;;14.96;62.98
71974;BME280;59840;52.122;5.404;2023-05-24T15:00:27;102582.19;;;14.95;62.40
71974;BME280;59840;52.122;5.404;2023-05-24T15:03:08;102577.34;;;15.03;62.60
71974;BME280;59840;52.122;5.404;2023-05-24T15:06:00;102577.91;;;15.29;61.84
71974;BME280;59840;52.122;5.404;2023-05-24T15:08:37;102567.84;;;15.31;61.20
71974;BME280;59840;52.122;5.404;2023-05-24T15:11:07;102563.56;;;15.41;62.13
71974;BME280;59840;52.122;5.404;2023-05-24T15:13:44;102571.66;;;15.58;62.51
71974;BME280;59840;52.122;5.404;2023-05-24T15:17:03;102574.75;;;15.67;62.04
71974;BME280;59840;52.122;5.404;2023-05-24T15:19:51;102560.22;;;15.58;60.36
71974;BME280;59840;52.122;5.404;2023-05-24T15:23:02;102574.50;;;15.68;61.84
71974;BME280;59840;52.122;5.404;2023-05-24T15:25:59;102567.88;;;15.83;59.96
71974;BME280;59840;52.122;5.404;2023-05-24T15:28:32;102564.50;;;15.87;61.07
71974;BME280;59840;52.122;5.404;2023-05-24T15:31:32;102569.06;;;16.03;59.53
71974;BME280;59840;52.122;5.404;2023-05-24T15:35:01;102569.88;;;16.04;60.77
71974;BME280;59840;52.122;5.404;2023-05-24T15:37:38;102565.88;;;16.18;58.57
71974;BME280;59840;52.122;5.404;2023-05-24T15:40:24;102579.63;;;16.27;58.11
71974;BME280;59840;52.122;5.404;2023-05-24T15:42:58;102573.63;;;16.20;58.30
71974;BME280;59840;52.122;5.404;2023-05-24T15:46:14;102577.72;;;16.11;57.14
71974;BME280;59840;52.122;5.404;2023-05-24T15:48:52;102565.25;;;15.99;57.16
71974;BME280;59840;52.122;5.404;2023-05-24T15:51:34;102567.75;;;15.89;58.58
71974;BME280;59840;52.122;5.404;2023-05-24T15:54:41;102569.97;;;15.81;60.03
71974;BME280;59840;52.122;5.404;2023-05-24T15:57:20;102566.38;;;15.75;61.11
71974;BME280;59840;52.122;5.404;2023-05-24T16:00:00;102569.63;;;15.77;60.29
71974;BME280;59840;52.122;5.404;2023-05-24T16:02:27;102566.69;;;15.90;59.40
71974;BME280;59840;52.122;5.404;2023-05-24T16:05:11;102566.00;;;16.12;58.11
71974;BME280;59840;52.122;5.404;2023-05-24T16:07:38;102560.88;;;16.22;57.32
71974;BME280;59840;52.122;5.404;2023-05-24T16:10:17;102566.78;;;16.24;57.85
71974;BME280;59840;52.122;5.404;2023-05-24T16:13:01;102572.72;;;16.14;56.81
71974;BME280;59840;52.122;5.404;2023-05-24T16:15:54;102566.69;;;15.90;57.90
71974;BME280;59840;52.122;5.404;2023-05-24T16:18:25;102570.09;;;15.74;59.21
71974;BME280;59840;52.122;5.404;2023-05-24T16:21:13;102571.50;;;15.65;60.92
71974;BME280;59840;52.122;5.404;2023-05-24T16:24:00;102578.34;;;15.49;60.15
71974;BME280;59840;52.122;5.404;2023-05-24T16:26:55;102572.13;;;15.32;61.99
71974;BME280;59840;52.122;5.404;2023-05-24T16:29:25;102569.25;;;15.10;61.94
71974;BME280;59840;52.122;5.404;2023-05-24T16:32:15;102565.56;;;14.99;61.94
71974;BME280;59840;52.122;5.404;2023-05-24T16:34:50;102573.19;;;14.96;62.31
71974;BME280;59840;52.122;5.404;2023-05-24T16:37:31;102563.13;;;14.86;62.64
71974;BME280;59840;52.122;5.404;2023-05-24T16:40:05;102561.88;;;14.89;62.82
71974;BME280;59840;52.122;5.404;2023-05-24T16:42:38;102564.63;;;14.82;63.43
71974;BME280;59840;52.122;5.404;2023-05-24T16:45:12;102575.50;;;14.81;63.68
71974;BME280;59840;52.122;5.404;2023-05-24T16:47:55;102568.91;;;14.71;63.93
71974;BME280;59840;52.122;5.404;2023-05-24T16:50:56;102571.28;;;14.61;65.15
71974;BME280;59840;52.122;5.404;2023-05-24T16:53:29;102568.19;;;14.64;65.39
71974;BME280;59840;52.122;5.404;2023-05-24T16:56:02;102566.13;;;14.66;64.40
71974;BME280;59840;52.122;5.404;2023-05-24T16:58:40;102574.53;;;14.63;65.73
71974;BME280;59840;52.122;5.404;2023-05-24T17:01:15;102574.19;;;14.60;65.31
71974;BME280;59840;52.122;5.404;2023-05-24T17:03:44;102577.41;;;14.62;65.05
71974;BME280;59840;52.122;5.404;2023-05-24T17:06:11;102576.97;;;14.65;64.32
71974;BME280;59840;52.122;5.404;2023-05-24T17:08:45;102572.91;;;14.62;63.44
71974;BME280;59840;52.122;5.404;2023-05-24T17:11:16;102562.28;;;14.62;64.42
71974;BME280;59840;52.122;5.404;2023-05-24T17:13:47;102573.72;;;14.63;63.95
71974;BME280;59840;52.122;5.404;2023-05-24T17:16:16;102573.38;;;14.59;64.17
71974;BME280;59840;52.122;5.404;2023-05-24T17:18:44;102571.16;;;14.56;63.94
71974;BME280;59840;52.122;5.404;2023-05-24T17:21:20;102572.69;;;14.52;64.61
71974;BME280;59840;52.122;5.404;2023-05-24T17:23:56;102568.50;;;14.45;64.82
71974;BME280;59840;52.122;5.404;2023-05-24T17:26:56;102574.84;;;14.44;64.86
71974;BME280;59840;52.122;5.404;2023-05-24T17:29:28;102575.28;;;14.40;65.77
71974;BME280;59840;52.122;5.404;2023-05-24T17:32:05;102571.63;;;14.41;64.38
71974;BME280;59840;52.122;5.404;2023-05-24T17:34:33;102573.25;;;14.43;66.04
71974;BME280;59840;52.122;5.404;2023-05-24T17:37:21;102573.06;;;14.37;66.28
71974;BME280;59840;52.122;5.404;2023-05-24T17:39:59;102580.69;;;14.34;67.41
71974;BME280;59840;52.122;5.404;2023-05-24T17:42:35;102573.63;;;14.28;67.39
71974;BME280;59840;52.122;5.404;2023-05-24T17:45:07;102579.28;;;14.20;67.91
71974;BME280;59840;52.122;5.404;2023-05-24T17:47:41;102577.06;;;14.17;69.18
71974;BME280;59840;52.122;5.404;2023-05-24T17:50:20;102570.59;;;14.13;68.92
71974;BME280;59840;52.122;5.404;2023-05-24T17:52:52;102577.97;;;14.11;68.18
71974;BME280;59840;52.122;5.404;2023-05-24T17:55:35;102583.50;;;14.09;68.10
71974;BME280;59840;52.122;5.404;2023-05-24T17:58:16;102590.06;;;14.06;68.38
71974;BME280;59840;52.122;5.404;2023-05-24T18:01:26;102588.88;;;14.02;68.18
71974;BME280;59840;52.122;5.404;2023-05-24T18:04:11;102594.19;;;14.02;69.00
71974;BME280;59840;52.122;5.404;2023-05-24T18:06:53;102596.69;;;13.97;69.31
71974;BME280;59840;52.122;5.404;2023-05-24T18:09:43;102591.63;;;13.96;69.27
71974;BME280;59840;52.122;5.404;2023-05-24T18:12:12;102589.78;;;13.96;69.11
71974;BME280;59840;52.122;5.404;2023-05-24T18:14:40;102588.16;;;13.95;69.71
71974;BME280;59840;52.122;5.404;2023-05-24T18:17:19;102588.59;;;13.92;70.05
71974;BME280;59840;52.122;5.404;2023-05-24T18:19:59;102585.72;;;13.94;70.67
71974;BME280;59840;52.122;5.404;2023-05-24T18:22:28;102596.13;;;13.95;69.78
71974;BME280;59840;52.122;5.404;2023-05-24T18:24:54;102597.16;;;13.94;69.27
71974;BME280;59840;52.122;5.404;2023-05-24T18:27:35;102592.28;;;13.91;69.77
71974;BME280;59840;52.122;5.404;2023-05-24T18:30:13;102597.94;;;13.95;70.15
71974;BME280;59840;52.122;5.404;2023-05-24T18:32:42;102597.94;;;13.95;71.16
71974;BME280;59840;52.122;5.404;2023-05-24T18:35:48;102598.97;;;13.94;70.63
71974;BME280;59840;52.122;5.404;2023-05-24T18:38:26;102592.72;;;13.88;70.83
71974;BME280;59840;52.122;5.404;2023-05-24T18:41:05;102591.09;;;13.87;71.23
71974;BME280;59840;52.122;5.404;2023-05-24T18:43:38;102589.03;;;13.89;71.10
71974;BME280;59840;52.122;5.404;2023-05-24T18:46:36;102591.69;;;13.89;71.40
71974;BME280;59840;52.122;5.404;2023-05-24T18:49:03;102599.22;;;13.92;71.81
71974;BME280;59840;52.122;5.404;2023-05-24T18:51:34;102600.25;;;13.91;71.68
71974;BME280;59840;52.122;5.404;2023-05-24T18:54:06;102594.94;;;13.91;72.33
71974;BME280;59840;52.122;5.404;2023-05-24T18:56:49;102595.38;;;13.88;71.46
71974;BME280;59840;52.122;5.404;2023-05-24T18:59:20;102607.50;;;13.84;72.77
71974;BME280;59840;52.122;5.404;2023-05-24T19:01:52;102609.34;;;13.84;73.60
71974;BME280;59840;52.122;5.404;2023-05-24T19:04:19;102607.34;;;13.79;72.25
71974;BME280;59840;52.122;5.404;2023-05-24T19:06:46;102610.00;;;13.79;72.96
71974;BME280;59840;52.122;5.404;2023-05-24T19:09:12;102617.00;;;13.73;73.05
71974;BME280;59840;52.122;5.404;2023-05-24T19:11:39;102616.47;;;13.65;73.81
71974;BME280;59840;52.122;5.404;2023-05-24T19:14:06;102616.53;;;13.58;72.95
71974;BME280;59840;52.122;5.404;2023-05-24T19:16:59;102610.06;;;13.54;73.47
71974;BME280;59840;52.122;5.404;2023-05-24T19:19:29;102609.34;;;13.47;73.58
71974;BME280;59840;52.122;5.404;2023-05-24T19:21:58;102614.50;;;13.42;73.59
71974;BME280;59840;52.122;5.404;2023-05-24T19:24:26;102626.50;;;13.45;74.44
71974;BME280;59840;52.122;5.404;2023-05-24T19:27:00;102621.63;;;13.41;73.99
71974;BME280;59840;52.122;5.404;2023-05-24T19:29:35;102617.94;;;13.43;74.22
71974;BME280;59840;52.122;5.404;2023-05-24T19:32:07;102627.59;;;13.37;74.50
71974;BME280;59840;52.122;5.404;2023-05-24T19:34:36;102633.69;;;13.37;75.31
71974;BME280;59840;52.122;5.404;2023-05-24T19:37:10;102636.19;;;13.32;74.71